Zahedan, Zahedan Airport (OIZH)

NameZahedan Airport
CityZahedan
CountryIran (Islamic Republic of)
ICAOOIZH
IATAZAH
Altitude1391 m
CoordinatesGoogle Map
Live Air TrafficLiveATC.net
METAROIZH 200100Z 19004KT 9999 -SHRA FEW030CB SCT035 BKN090 12/06 Q1017 A3004
2019-11-20 01:00:00 Wind: South (190°) 2.06 m/s - Visibility: > 10000 m - Weather: Light Showers Rain - Temperature: 12 °C - Dew point: 6 °C - Humidity: 67% - Pressure: 1017.27 hPa
Statistics

The table below shows the detailed information of all flights to/from Zahedan, Zahedan Airport (OIZH).